Minot, ND

6:23 PM CST on February 05, 2016 (GMT -0600)
Edgeview Estates | | Change Station
CLOSE
Current Station
Personal Weather Station
Location: Minot, ND
Elevation: 1752 ft
Nearby Weather Stations
Active Advisory: High Wind Watch

Elev 1752 ft 48.21 °N, 101.33 °W | Updated 6 seconds ago

Clear
Clear
33.5 °F
Feels Like 34 °F
N
2.0
Wind Variable Wind from SE
Gusts 5.0 mph

Today
High -- | Low -- °F
--% Chance of Precip.
Yesterday
High -- | Low -- °F
Precip. -- in
Pressure 30.10 in
Visibility 10.0 miles
Clouds Clear
Windchill 34 °F
Dew Point 23 °F
Humidity 64%
Rainfall 0.00 in
Snow Depth Not available.
8:08 AM 5:50 PM
Waning Crescent, 8% visible
METAR KMOT 052354Z 22006KT 10SM CLR 02/M06 A3003 RMK AO2 SLP192 T00221061 10044 21011 58014
Pressure 30.10 in
Visibility 10.0 miles
Clouds Clear
Windchill 34 °F
Dew Point 23 °F
Humidity 64%
Rainfall 0.00 in
Snow Depth Not available.
8:08 AM 5:50 PM
Waning Crescent, 8% visible
METAR KMOT 052354Z 22006KT 10SM CLR 02/M06 A3003 RMK AO2 SLP192 T00221061 10044 21011 58014

10-Day Weather Forecast

Almanac

Astronomy

Feb. 05, 2016 Rise Set
Actual Time
Civil Twilight
Nautical Twilight
Astronomical Twilight
Moon
Length of Visible Light
Length of Day
Tomorrow will be .
, % of the Moon is Illuminated

Today's Extremes

State Highs State Lows

Community

WunderPhotos

Upload Photos

1,890,897 photos uploaded!

WunderBlog® & News

Nearby

Air Quality

  Air Quality AQ Index Pollutant
Not available.

Snow Depth

Station Depth Elevation

Earthquake Activity

City Distance Mag. Time & Date
Minimum magnitude displayed is 2.5.

Coastal Water Temperatures

Place Temperature

Stations

Nearby Weather Stations

Station Location Temp. Windchill Dew Point Humidity Wind Precip. Elev Updated Type
                   

Watches & Warnings

High Wind Watch
Issued: 6:09 PM CST Feb. 5, 2016 – National Weather Service

... High wind watch remains in effect from late Saturday night
through Sunday evening...

* timing... late Saturday night through Sunday evening.

* Winds... northwest winds gusting up to 65 mph are possible.

* Impacts... travel may become hazardous over western into many
portions of central North Dakota. Snow and blowing snow may
reduce visibilities on Sunday.

Precautionary/preparedness actions...

A high wind watch means there is the potential for a hazardous
high wind event. Sustained winds of at least 40 mph... or gusts of
58 mph or stronger may occur. Continue to monitor the latest
forecasts.